sensor_id;sensor_type;location;lat;lon;timestamp;pressure;altitude;pressure_sealevel;temperature;humidity
60246;BME280;46107;53.356;-1.524;2023-03-23T00:00:08;96332.10;;;5.90;86.61
60246;BME280;46107;53.356;-1.524;2023-03-23T00:02:36;96338.67;;;5.34;89.61
60246;BME280;46107;53.356;-1.524;2023-03-23T00:05:05;96335.52;;;6.17;84.52
60246;BME280;46107;53.356;-1.524;2023-03-23T00:07:32;96340.26;;;5.79;86.63
60246;BME280;46107;53.356;-1.524;2023-03-23T00:10:00;96335.48;;;6.18;84.34
60246;BME280;46107;53.356;-1.524;2023-03-23T00:12:30;96339.65;;;6.29;84.10
60246;BME280;46107;53.356;-1.524;2023-03-23T00:14:58;96345.26;;;6.78;81.98
60246;BME280;46107;53.356;-1.524;2023-03-23T00:17:25;96354.83;;;6.79;82.76
60246;BME280;46107;53.356;-1.524;2023-03-23T00:19:53;96344.23;;;6.74;80.92
60246;BME280;46107;53.356;-1.524;2023-03-23T00:22:20;96347.79;;;6.36;83.42
60246;BME280;46107;53.356;-1.524;2023-03-23T00:24:48;96364.61;;;5.28;88.47
60246;BME280;46107;53.356;-1.524;2023-03-23T00:27:16;96359.21;;;5.89;86.45
60246;BME280;46107;53.356;-1.524;2023-03-23T00:29:44;96361.41;;;5.52;87.71
60246;BME280;46107;53.356;-1.524;2023-03-23T00:32:13;96369.74;;;5.52;89.01
60246;BME280;46107;53.356;-1.524;2023-03-23T00:34:41;96370.80;;;5.41;89.64
60246;BME280;46107;53.356;-1.524;2023-03-23T00:37:09;96368.68;;;6.20;83.35
60246;BME280;46107;53.356;-1.524;2023-03-23T00:39:38;96373.44;;;5.71;83.82
60246;BME280;46107;53.356;-1.524;2023-03-23T00:42:06;96373.16;;;6.03;83.97
60246;BME280;46107;53.356;-1.524;2023-03-23T00:44:33;96396.19;;;5.36;86.67
60246;BME280;46107;53.356;-1.524;2023-03-23T00:47:04;96386.66;;;5.32;85.75
60246;BME280;46107;53.356;-1.524;2023-03-23T00:49:33;96386.72;;;5.98;83.56
60246;BME280;46107;53.356;-1.524;2023-03-23T00:52:00;96386.16;;;5.83;82.31
60246;BME280;46107;53.356;-1.524;2023-03-23T00:54:28;96406.28;;;5.51;85.46
60246;BME280;46107;53.356;-1.524;2023-03-23T00:56:55;96406.99;;;4.94;88.04
60246;BME280;46107;53.356;-1.524;2023-03-23T00:59:23;96401.60;;;5.25;88.54
60246;BME280;46107;53.356;-1.524;2023-03-23T01:01:51;96397.47;;;4.71;89.14
60246;BME280;46107;53.356;-1.524;2023-03-23T01:04:19;96406.30;;;4.87;86.01
60246;BME280;46107;53.356;-1.524;2023-03-23T01:06:49;96393.58;;;4.52;86.20
60246;BME280;46107;53.356;-1.524;2023-03-23T01:09:18;96396.21;;;4.64;87.05
60246;BME280;46107;53.356;-1.524;2023-03-23T01:11:46;96410.89;;;3.68;88.14
60246;BME280;46107;53.356;-1.524;2023-03-23T01:14:17;96408.94;;;3.83;89.31
60246;BME280;46107;53.356;-1.524;2023-03-23T01:16:45;96408.58;;;3.98;87.71
60246;BME280;46107;53.356;-1.524;2023-03-23T01:19:13;96410.11;;;4.21;86.12
60246;BME280;46107;53.356;-1.524;2023-03-23T01:21:41;96426.40;;;3.95;86.04
60246;BME280;46107;53.356;-1.524;2023-03-23T01:24:09;96411.67;;;4.27;85.58
60246;BME280;46107;53.356;-1.524;2023-03-23T01:26:37;96419.74;;;3.72;87.35
60246;BME280;46107;53.356;-1.524;2023-03-23T01:29:04;96423.34;;;4.15;85.31
60246;BME280;46107;53.356;-1.524;2023-03-23T01:31:32;96428.91;;;3.89;87.00
60246;BME280;46107;53.356;-1.524;2023-03-23T01:34:00;96433.00;;;3.68;88.32
60246;BME280;46107;53.356;-1.524;2023-03-23T01:36:29;96444.63;;;3.99;85.28
60246;BME280;46107;53.356;-1.524;2023-03-23T01:38:57;96437.72;;;3.88;85.45
60246;BME280;46107;53.356;-1.524;2023-03-23T01:41:24;96434.67;;;4.29;84.62
60246;BME280;46107;53.356;-1.524;2023-03-23T01:44:02;96442.91;;;4.32;83.83
60246;BME280;46107;53.356;-1.524;2023-03-23T01:46:31;96446.96;;;4.49;82.54
60246;BME280;46107;53.356;-1.524;2023-03-23T01:49:03;96458.41;;;4.38;82.18
60246;BME280;46107;53.356;-1.524;2023-03-23T01:51:35;96464.76;;;3.83;85.22
60246;BME280;46107;53.356;-1.524;2023-03-23T01:54:07;96466.03;;;3.90;85.35
60246;BME280;46107;53.356;-1.524;2023-03-23T01:56:41;96469.10;;;4.35;82.49
60246;BME280;46107;53.356;-1.524;2023-03-23T01:59:09;96458.79;;;4.29;83.22
60246;BME280;46107;53.356;-1.524;2023-03-23T02:01:38;96467.14;;;4.36;83.13
60246;BME280;46107;53.356;-1.524;2023-03-23T02:04:06;96478.44;;;4.77;83.15
60246;BME280;46107;53.356;-1.524;2023-03-23T02:06:34;96473.49;;;3.22;88.15
60246;BME280;46107;53.356;-1.524;2023-03-23T02:09:02;96479.87;;;4.01;87.38
60246;BME280;46107;53.356;-1.524;2023-03-23T02:11:29;96474.06;;;3.95;86.19
60246;BME280;46107;53.356;-1.524;2023-03-23T02:13:57;96479.09;;;4.41;84.93
60246;BME280;46107;53.356;-1.524;2023-03-23T02:16:31;96470.54;;;4.32;84.91
60246;BME280;46107;53.356;-1.524;2023-03-23T02:19:20;96467.11;;;3.80;86.19
60246;BME280;46107;53.356;-1.524;2023-03-23T02:22:06;96471.13;;;4.11;84.65
60246;BME280;46107;53.356;-1.524;2023-03-23T02:26:55;96484.01;;;3.99;86.16
60246;BME280;46107;53.356;-1.524;2023-03-23T02:29:36;96481.30;;;4.05;84.58
60246;BME280;46107;53.356;-1.524;2023-03-23T02:32:27;96482.36;;;3.65;86.11
60246;BME280;46107;53.356;-1.524;2023-03-23T02:35:03;96475.50;;;3.92;83.73
60246;BME280;46107;53.356;-1.524;2023-03-23T02:37:38;96477.34;;;3.27;88.37
60246;BME280;46107;53.356;-1.524;2023-03-23T02:40:11;96482.40;;;3.45;85.64
60246;BME280;46107;53.356;-1.524;2023-03-23T02:42:43;96484.27;;;3.67;85.22
60246;BME280;46107;53.356;-1.524;2023-03-23T02:45:14;96486.62;;;4.08;83.22
60246;BME280;46107;53.356;-1.524;2023-03-23T02:47:42;96483.89;;;3.26;84.55
60246;BME280;46107;53.356;-1.524;2023-03-23T02:50:12;96490.67;;;3.79;84.25
60246;BME280;46107;53.356;-1.524;2023-03-23T02:52:42;96490.98;;;3.99;83.28
60246;BME280;46107;53.356;-1.524;2023-03-23T02:55:11;96478.66;;;3.59;83.48
60246;BME280;46107;53.356;-1.524;2023-03-23T02:57:39;96493.44;;;3.63;84.31
60246;BME280;46107;53.356;-1.524;2023-03-23T03:00:12;96508.77;;;3.52;83.60
60246;BME280;46107;53.356;-1.524;2023-03-23T03:02:42;96500.34;;;3.58;84.49
60246;BME280;46107;53.356;-1.524;2023-03-23T03:05:16;96509.59;;;3.76;80.67
60246;BME280;46107;53.356;-1.524;2023-03-23T03:07:57;96513.55;;;3.84;81.19
60246;BME280;46107;53.356;-1.524;2023-03-23T03:10:28;96515.09;;;4.24;80.52
60246;BME280;46107;53.356;-1.524;2023-03-23T03:13:04;96518.36;;;4.15;79.98
60246;BME280;46107;53.356;-1.524;2023-03-23T03:15:37;96526.57;;;3.35;83.50
60246;BME280;46107;53.356;-1.524;2023-03-23T03:18:13;96523.61;;;3.33;83.63
60246;BME280;46107;53.356;-1.524;2023-03-23T03:20:47;96528.20;;;3.86;81.71
60246;BME280;46107;53.356;-1.524;2023-03-23T03:23:16;96529.54;;;3.62;82.97
60246;BME280;46107;53.356;-1.524;2023-03-23T03:25:45;96530.53;;;3.11;83.01
60246;BME280;46107;53.356;-1.524;2023-03-23T03:28:16;96531.64;;;4.10;80.78
60246;BME280;46107;53.356;-1.524;2023-03-23T03:30:45;96533.34;;;3.82;82.26
60246;BME280;46107;53.356;-1.524;2023-03-23T03:33:15;96540.56;;;4.04;81.62
60246;BME280;46107;53.356;-1.524;2023-03-23T03:35:42;96537.54;;;3.57;83.49
60246;BME280;46107;53.356;-1.524;2023-03-23T03:38:11;96538.47;;;4.03;82.75
60246;BME280;46107;53.356;-1.524;2023-03-23T03:40:39;96541.56;;;3.39;85.07
60246;BME280;46107;53.356;-1.524;2023-03-23T03:43:07;96536.02;;;3.35;86.07
60246;BME280;46107;53.356;-1.524;2023-03-23T03:45:34;96541.69;;;3.21;85.63
60246;BME280;46107;53.356;-1.524;2023-03-23T03:48:02;96540.43;;;3.20;85.02
60246;BME280;46107;53.356;-1.524;2023-03-23T03:50:29;96536.12;;;3.82;83.62
60246;BME280;46107;53.356;-1.524;2023-03-23T03:52:57;96536.00;;;3.94;82.54
60246;BME280;46107;53.356;-1.524;2023-03-23T03:55:24;96547.55;;;3.45;83.24
60246;BME280;46107;53.356;-1.524;2023-03-23T03:57:52;96538.29;;;3.63;82.34
60246;BME280;46107;53.356;-1.524;2023-03-23T04:00:19;96537.15;;;2.93;85.76
60246;BME280;46107;53.356;-1.524;2023-03-23T04:02:48;96538.62;;;3.90;83.14
60246;BME280;46107;53.356;-1.524;2023-03-23T04:05:17;96546.23;;;3.58;84.72
60246;BME280;46107;53.356;-1.524;2023-03-23T04:07:44;96550.86;;;3.76;84.53
60246;BME280;46107;53.356;-1.524;2023-03-23T04:10:12;96549.84;;;3.30;84.42
60246;BME280;46107;53.356;-1.524;2023-03-23T04:12:40;96559.12;;;4.05;83.57
60246;BME280;46107;53.356;-1.524;2023-03-23T04:15:08;96560.25;;;3.28;83.86
60246;BME280;46107;53.356;-1.524;2023-03-23T04:17:35;96551.37;;;3.50;85.19
60246;BME280;46107;53.356;-1.524;2023-03-23T04:20:04;96553.30;;;3.55;84.72
60246;BME280;46107;53.356;-1.524;2023-03-23T04:22:32;96562.06;;;3.57;84.01
60246;BME280;46107;53.356;-1.524;2023-03-23T04:25:01;96565.93;;;3.41;82.51
60246;BME280;46107;53.356;-1.524;2023-03-23T04:27:29;96568.29;;;2.87;86.59
60246;BME280;46107;53.356;-1.524;2023-03-23T04:29:56;96565.70;;;3.09;84.94
60246;BME280;46107;53.356;-1.524;2023-03-23T04:32:25;96569.19;;;3.16;85.87
60246;BME280;46107;53.356;-1.524;2023-03-23T04:34:53;96570.26;;;3.28;84.62
60246;BME280;46107;53.356;-1.524;2023-03-23T04:37:20;96575.23;;;3.27;83.94
60246;BME280;46107;53.356;-1.524;2023-03-23T04:39:48;96578.98;;;3.37;84.04
60246;BME280;46107;53.356;-1.524;2023-03-23T04:42:15;96579.92;;;3.45;82.64
60246;BME280;46107;53.356;-1.524;2023-03-23T04:44:43;96579.18;;;3.95;81.17
60246;BME280;46107;53.356;-1.524;2023-03-23T04:47:10;96584.46;;;3.00;83.43
60246;BME280;46107;53.356;-1.524;2023-03-23T04:49:37;96586.82;;;3.74;82.77
60246;BME280;46107;53.356;-1.524;2023-03-23T04:52:05;96587.66;;;3.97;82.49
60246;BME280;46107;53.356;-1.524;2023-03-23T04:54:32;96589.30;;;3.85;83.04
60246;BME280;46107;53.356;-1.524;2023-03-23T04:57:01;96597.15;;;3.73;82.02
60246;BME280;46107;53.356;-1.524;2023-03-23T04:59:29;96596.50;;;4.29;82.45
60246;BME280;46107;53.356;-1.524;2023-03-23T05:01:56;96594.00;;;3.65;84.64
60246;BME280;46107;53.356;-1.524;2023-03-23T05:04:24;96586.86;;;3.62;83.90
60246;BME280;46107;53.356;-1.524;2023-03-23T05:06:52;96586.30;;;3.86;82.76
60246;BME280;46107;53.356;-1.524;2023-03-23T05:09:20;96579.41;;;3.87;83.77
60246;BME280;46107;53.356;-1.524;2023-03-23T05:11:48;96579.71;;;4.04;81.84
60246;BME280;46107;53.356;-1.524;2023-03-23T05:14:15;96570.40;;;3.80;83.31
60246;BME280;46107;53.356;-1.524;2023-03-23T05:16:43;96567.46;;;3.72;82.28
60246;BME280;46107;53.356;-1.524;2023-03-23T05:19:10;96561.97;;;3.25;83.94
60246;BME280;46107;53.356;-1.524;2023-03-23T05:21:38;96563.70;;;3.52;83.64
60246;BME280;46107;53.356;-1.524;2023-03-23T05:24:06;96562.23;;;3.71;82.78
60246;BME280;46107;53.356;-1.524;2023-03-23T05:26:34;96558.74;;;3.94;81.89
60246;BME280;46107;53.356;-1.524;2023-03-23T05:29:01;96563.36;;;2.86;86.15
60246;BME280;46107;53.356;-1.524;2023-03-23T05:31:29;96565.36;;;4.02;83.28
60246;BME280;46107;53.356;-1.524;2023-03-23T05:33:57;96557.92;;;3.54;85.31
60246;BME280;46107;53.356;-1.524;2023-03-23T05:36:25;96562.53;;;3.10;87.16
60246;BME280;46107;53.356;-1.524;2023-03-23T05:38:52;96563.56;;;3.74;82.71
60246;BME280;46107;53.356;-1.524;2023-03-23T05:41:19;96559.20;;;3.98;80.76
60246;BME280;46107;53.356;-1.524;2023-03-23T05:43:47;96560.15;;;3.88;81.84
60246;BME280;46107;53.356;-1.524;2023-03-23T05:46:15;96564.66;;;3.76;82.10
60246;BME280;46107;53.356;-1.524;2023-03-23T05:48:42;96570.55;;;2.96;84.86
60246;BME280;46107;53.356;-1.524;2023-03-23T05:51:10;96569.47;;;3.88;81.57
60246;BME280;46107;53.356;-1.524;2023-03-23T05:53:38;96557.32;;;4.65;79.94
60246;BME280;46107;53.356;-1.524;2023-03-23T05:56:05;96559.37;;;3.40;82.73
60246;BME280;46107;53.356;-1.524;2023-03-23T05:58:33;96561.34;;;3.96;81.18
60246;BME280;46107;53.356;-1.524;2023-03-23T06:01:00;96561.22;;;3.58;80.92
60246;BME280;46107;53.356;-1.524;2023-03-23T06:03:28;96565.14;;;3.66;82.56
60246;BME280;46107;53.356;-1.524;2023-03-23T06:05:55;96563.40;;;3.88;82.34
60246;BME280;46107;53.356;-1.524;2023-03-23T06:08:23;96566.63;;;3.60;83.74
60246;BME280;46107;53.356;-1.524;2023-03-23T06:10:50;96568.77;;;3.55;83.87
60246;BME280;46107;53.356;-1.524;2023-03-23T06:13:18;96560.88;;;4.52;80.97
60246;BME280;46107;53.356;-1.524;2023-03-23T06:15:46;96559.06;;;3.84;80.75
60246;BME280;46107;53.356;-1.524;2023-03-23T06:18:14;96558.25;;;3.50;82.73
60246;BME280;46107;53.356;-1.524;2023-03-23T06:20:42;96556.43;;;3.67;82.20
60246;BME280;46107;53.356;-1.524;2023-03-23T06:23:10;96557.24;;;3.68;82.21
60246;BME280;46107;53.356;-1.524;2023-03-23T06:25:37;96555.84;;;2.82;85.33
60246;BME280;46107;53.356;-1.524;2023-03-23T06:28:06;96553.86;;;3.57;83.39
60246;BME280;46107;53.356;-1.524;2023-03-23T06:30:34;96550.73;;;3.91;83.43
60246;BME280;46107;53.356;-1.524;2023-03-23T06:33:02;96553.61;;;2.98;84.47
60246;BME280;46107;53.356;-1.524;2023-03-23T06:35:29;96559.34;;;3.69;85.21
60246;BME280;46107;53.356;-1.524;2023-03-23T06:37:57;96556.13;;;3.38;85.13
60246;BME280;46107;53.356;-1.524;2023-03-23T06:40:24;96552.44;;;3.40;85.51
60246;BME280;46107;53.356;-1.524;2023-03-23T06:42:51;96558.73;;;3.56;83.73
60246;BME280;46107;53.356;-1.524;2023-03-23T06:45:19;96555.67;;;3.42;84.35
60246;BME280;46107;53.356;-1.524;2023-03-23T06:47:46;96553.02;;;3.66;85.08
60246;BME280;46107;53.356;-1.524;2023-03-23T06:50:14;96551.41;;;3.40;85.45
60246;BME280;46107;53.356;-1.524;2023-03-23T06:52:44;96551.90;;;3.09;86.34
60246;BME280;46107;53.356;-1.524;2023-03-23T06:55:12;96559.95;;;3.39;85.56
60246;BME280;46107;53.356;-1.524;2023-03-23T06:57:41;96556.51;;;4.22;82.90
60246;BME280;46107;53.356;-1.524;2023-03-23T07:00:10;96569.96;;;3.31;85.44
60246;BME280;46107;53.356;-1.524;2023-03-23T07:02:38;96564.42;;;3.52;85.48
60246;BME280;46107;53.356;-1.524;2023-03-23T07:05:06;96563.37;;;4.05;82.56
60246;BME280;46107;53.356;-1.524;2023-03-23T07:07:34;96560.07;;;4.04;84.45
60246;BME280;46107;53.356;-1.524;2023-03-23T07:10:02;96565.91;;;4.21;82.84
60246;BME280;46107;53.356;-1.524;2023-03-23T07:12:30;96561.42;;;4.26;83.96
60246;BME280;46107;53.356;-1.524;2023-03-23T07:14:58;96556.46;;;4.09;84.36
60246;BME280;46107;53.356;-1.524;2023-03-23T07:17:25;96559.61;;;4.76;84.00
60246;BME280;46107;53.356;-1.524;2023-03-23T07:19:53;96551.03;;;4.60;84.94
60246;BME280;46107;53.356;-1.524;2023-03-23T07:22:21;96550.93;;;4.19;86.76
60246;BME280;46107;53.356;-1.524;2023-03-23T07:24:48;96552.59;;;4.25;86.60
60246;BME280;46107;53.356;-1.524;2023-03-23T07:27:16;96549.94;;;4.39;86.89
60246;BME280;46107;53.356;-1.524;2023-03-23T07:29:43;96555.18;;;4.35;83.75
60246;BME280;46107;53.356;-1.524;2023-03-23T07:32:11;96557.58;;;4.29;85.67
60246;BME280;46107;53.356;-1.524;2023-03-23T07:34:39;96561.11;;;5.12;79.56
60246;BME280;46107;53.356;-1.524;2023-03-23T07:37:07;96555.66;;;5.29;80.93
60246;BME280;46107;53.356;-1.524;2023-03-23T07:39:35;96548.45;;;4.95;82.24
60246;BME280;46107;53.356;-1.524;2023-03-23T07:42:03;96549.80;;;5.12;81.85
60246;BME280;46107;53.356;-1.524;2023-03-23T07:44:30;96544.82;;;5.33;79.52
60246;BME280;46107;53.356;-1.524;2023-03-23T07:46:58;96540.49;;;5.20;80.91
60246;BME280;46107;53.356;-1.524;2023-03-23T07:49:26;96539.79;;;5.11;81.24
60246;BME280;46107;53.356;-1.524;2023-03-23T07:51:53;96543.28;;;5.20;79.26
60246;BME280;46107;53.356;-1.524;2023-03-23T07:54:20;96537.59;;;5.37;81.88
60246;BME280;46107;53.356;-1.524;2023-03-23T07:56:47;96544.01;;;4.92;83.11
60246;BME280;46107;53.356;-1.524;2023-03-23T07:59:15;96544.30;;;4.71;85.18
60246;BME280;46107;53.356;-1.524;2023-03-23T08:01:43;96549.61;;;5.37;82.58
60246;BME280;46107;53.356;-1.524;2023-03-23T08:04:10;96546.68;;;5.38;83.14
60246;BME280;46107;53.356;-1.524;2023-03-23T08:06:38;96553.74;;;5.37;83.72
60246;BME280;46107;53.356;-1.524;2023-03-23T08:09:06;96548.27;;;5.41;81.48
60246;BME280;46107;53.356;-1.524;2023-03-23T08:11:34;96554.11;;;5.53;82.06
60246;BME280;46107;53.356;-1.524;2023-03-23T08:14:02;96546.50;;;6.13;81.48
60246;BME280;46107;53.356;-1.524;2023-03-23T08:16:30;96549.96;;;4.90;84.94
60246;BME280;46107;53.356;-1.524;2023-03-23T08:18:57;96546.18;;;5.25;85.22
60246;BME280;46107;53.356;-1.524;2023-03-23T08:21:25;96550.62;;;5.72;82.70
60246;BME280;46107;53.356;-1.524;2023-03-23T08:23:53;96555.37;;;5.81;81.17
60246;BME280;46107;53.356;-1.524;2023-03-23T08:26:20;96542.46;;;5.15;84.42
60246;BME280;46107;53.356;-1.524;2023-03-23T08:28:48;96549.59;;;5.55;83.78
60246;BME280;46107;53.356;-1.524;2023-03-23T08:31:16;96546.71;;;5.78;82.58
60246;BME280;46107;53.356;-1.524;2023-03-23T08:33:43;96553.82;;;5.36;83.75
60246;BME280;46107;53.356;-1.524;2023-03-23T08:36:11;96556.97;;;5.63;84.70
60246;BME280;46107;53.356;-1.524;2023-03-23T08:38:39;96551.28;;;6.36;82.26
60246;BME280;46107;53.356;-1.524;2023-03-23T08:41:07;96548.26;;;6.34;81.40
60246;BME280;46107;53.356;-1.524;2023-03-23T08:43:35;96549.18;;;6.21;80.86
60246;BME280;46107;53.356;-1.524;2023-03-23T08:46:02;96555.25;;;6.67;79.47
60246;BME280;46107;53.356;-1.524;2023-03-23T08:48:30;96560.65;;;6.16;80.23
60246;BME280;46107;53.356;-1.524;2023-03-23T08:50:58;96563.90;;;6.68;80.71
60246;BME280;46107;53.356;-1.524;2023-03-23T08:53:25;96563.28;;;6.96;78.76
60246;BME280;46107;53.356;-1.524;2023-03-23T08:55:53;96558.34;;;6.67;78.25
60246;BME280;46107;53.356;-1.524;2023-03-23T08:58:20;96569.26;;;6.11;81.25
60246;BME280;46107;53.356;-1.524;2023-03-23T09:00:49;96560.97;;;6.59;78.94
60246;BME280;46107;53.356;-1.524;2023-03-23T09:03:17;96568.35;;;6.32;79.48
60246;BME280;46107;53.356;-1.524;2023-03-23T09:05:45;96566.60;;;6.57;80.94
60246;BME280;46107;53.356;-1.524;2023-03-23T09:08:13;96558.72;;;7.19;80.49
60246;BME280;46107;53.356;-1.524;2023-03-23T09:10:41;96569.95;;;6.80;78.58
60246;BME280;46107;53.356;-1.524;2023-03-23T09:13:08;96562.09;;;6.51;77.52
60246;BME280;46107;53.356;-1.524;2023-03-23T09:15:38;96563.24;;;6.55;80.19
60246;BME280;46107;53.356;-1.524;2023-03-23T09:18:06;96566.70;;;6.96;79.90
60246;BME280;46107;53.356;-1.524;2023-03-23T09:20:33;96558.08;;;7.20;79.68
60246;BME280;46107;53.356;-1.524;2023-03-23T09:23:01;96551.34;;;7.05;77.79
60246;BME280;46107;53.356;-1.524;2023-03-23T09:25:29;96547.05;;;7.54;76.21
60246;BME280;46107;53.356;-1.524;2023-03-23T09:27:58;96551.17;;;7.33;75.04
60246;BME280;46107;53.356;-1.524;2023-03-23T09:30:27;96558.30;;;7.25;77.86
60246;BME280;46107;53.356;-1.524;2023-03-23T09:32:56;96564.15;;;6.65;80.31
60246;BME280;46107;53.356;-1.524;2023-03-23T09:35:24;96559.62;;;6.70;76.98
60246;BME280;46107;53.356;-1.524;2023-03-23T09:37:53;96556.48;;;6.95;77.35
60246;BME280;46107;53.356;-1.524;2023-03-23T09:40:22;96565.75;;;6.44;79.21
60246;BME280;46107;53.356;-1.524;2023-03-23T09:43:04;96564.12;;;7.24;76.22
60246;BME280;46107;53.356;-1.524;2023-03-23T09:45:41;96561.25;;;7.48;74.82
60246;BME280;46107;53.356;-1.524;2023-03-23T09:48:26;96567.63;;;6.66;76.15
60246;BME280;46107;53.356;-1.524;2023-03-23T09:51:02;96579.96;;;7.39;76.10
60246;BME280;46107;53.356;-1.524;2023-03-23T09:53:36;96581.19;;;7.25;76.23
60246;BME280;46107;53.356;-1.524;2023-03-23T09:56:11;96580.43;;;7.23;78.30
60246;BME280;46107;53.356;-1.524;2023-03-23T09:58:46;96582.51;;;7.51;74.74
60246;BME280;46107;53.356;-1.524;2023-03-23T10:01:20;96575.96;;;7.59;75.65
60246;BME280;46107;53.356;-1.524;2023-03-23T10:03:51;96595.77;;;8.18;73.73
60246;BME280;46107;53.356;-1.524;2023-03-23T10:06:19;96590.07;;;7.67;74.56
60246;BME280;46107;53.356;-1.524;2023-03-23T10:08:50;96597.29;;;8.14;74.16
60246;BME280;46107;53.356;-1.524;2023-03-23T10:11:26;96596.56;;;6.98;77.00
60246;BME280;46107;53.356;-1.524;2023-03-23T10:14:08;96598.79;;;7.84;72.59
60246;BME280;46107;53.356;-1.524;2023-03-23T10:16:42;96594.04;;;8.05;73.08
60246;BME280;46107;53.356;-1.524;2023-03-23T10:19:14;96596.95;;;7.73;73.86
60246;BME280;46107;53.356;-1.524;2023-03-23T10:21:47;96594.35;;;7.62;75.73
60246;BME280;46107;53.356;-1.524;2023-03-23T10:24:20;96586.38;;;8.51;74.02
60246;BME280;46107;53.356;-1.524;2023-03-23T10:26:56;96580.32;;;8.09;73.13
60246;BME280;46107;53.356;-1.524;2023-03-23T10:29:30;96579.42;;;8.92;69.01
60246;BME280;46107;53.356;-1.524;2023-03-23T10:32:01;96591.58;;;7.98;71.55
60246;BME280;46107;53.356;-1.524;2023-03-23T10:34:35;96588.33;;;8.23;71.90
60246;BME280;46107;53.356;-1.524;2023-03-23T10:37:08;96582.90;;;7.61;73.40
60246;BME280;46107;53.356;-1.524;2023-03-23T10:39:44;96592.03;;;7.24;74.17
60246;BME280;46107;53.356;-1.524;2023-03-23T10:42:22;96588.35;;;7.99;71.54
60246;BME280;46107;53.356;-1.524;2023-03-23T10:44:50;96591.34;;;8.29;71.33
60246;BME280;46107;53.356;-1.524;2023-03-23T10:47:17;96591.40;;;8.53;72.34
60246;BME280;46107;53.356;-1.524;2023-03-23T10:49:49;96584.23;;;8.16;73.61
60246;BME280;46107;53.356;-1.524;2023-03-23T10:52:27;96583.08;;;7.97;73.72
60246;BME280;46107;53.356;-1.524;2023-03-23T10:54:58;96581.79;;;8.31;72.21
60246;BME280;46107;53.356;-1.524;2023-03-23T10:57:30;96582.96;;;9.16;69.55
60246;BME280;46107;53.356;-1.524;2023-03-23T11:00:00;96583.14;;;9.47;66.52
60246;BME280;46107;53.356;-1.524;2023-03-23T11:02:28;96586.70;;;9.31;67.37
60246;BME280;46107;53.356;-1.524;2023-03-23T11:05:00;96580.17;;;8.34;66.93
60246;BME280;46107;53.356;-1.524;2023-03-23T11:07:31;96575.23;;;8.77;67.34
60246;BME280;46107;53.356;-1.524;2023-03-23T11:10:07;96581.80;;;8.82;64.87
60246;BME280;46107;53.356;-1.524;2023-03-23T11:12:36;96579.05;;;8.46;64.70
60246;BME280;46107;53.356;-1.524;2023-03-23T11:15:26;96577.27;;;9.20;65.48
60246;BME280;46107;53.356;-1.524;2023-03-23T11:17:57;96569.35;;;9.08;67.03
60246;BME280;46107;53.356;-1.524;2023-03-23T11:20:26;96573.37;;;8.83;63.19
60246;BME280;46107;53.356;-1.524;2023-03-23T11:22:54;96583.99;;;9.39;63.72
60246;BME280;46107;53.356;-1.524;2023-03-23T11:25:22;96595.40;;;9.76;62.47
60246;BME280;46107;53.356;-1.524;2023-03-23T11:27:51;96587.61;;;9.99;64.37
60246;BME280;46107;53.356;-1.524;2023-03-23T11:30:23;96589.38;;;9.82;63.12
60246;BME280;46107;53.356;-1.524;2023-03-23T11:33:08;96592.04;;;10.38;59.92
60246;BME280;46107;53.356;-1.524;2023-03-23T11:35:36;96607.95;;;10.15;58.32
60246;BME280;46107;53.356;-1.524;2023-03-23T11:38:04;96635.13;;;9.51;61.98
60246;BME280;46107;53.356;-1.524;2023-03-23T11:40:31;96654.70;;;8.51;66.75
60246;BME280;46107;53.356;-1.524;2023-03-23T11:43:08;96663.93;;;8.70;71.80
60246;BME280;46107;53.356;-1.524;2023-03-23T11:45:39;96665.37;;;8.29;71.28
60246;BME280;46107;53.356;-1.524;2023-03-23T11:48:15;96676.38;;;8.85;74.18
60246;BME280;46107;53.356;-1.524;2023-03-23T11:50:50;96657.92;;;8.36;77.82
60246;BME280;46107;53.356;-1.524;2023-03-23T11:53:32;96654.29;;;8.81;76.21
60246;BME280;46107;53.356;-1.524;2023-03-23T11:56:09;96648.57;;;8.95;76.07
60246;BME280;46107;53.356;-1.524;2023-03-23T11:58:38;96640.27;;;9.31;75.31
60246;BME280;46107;53.356;-1.524;2023-03-23T12:01:12;96642.60;;;9.34;69.17
60246;BME280;46107;53.356;-1.524;2023-03-23T12:03:54;96638.30;;;9.26;67.21
60246;BME280;46107;53.356;-1.524;2023-03-23T12:06:32;96628.67;;;9.32;68.27
60246;BME280;46107;53.356;-1.524;2023-03-23T12:09:11;96644.81;;;8.68;68.85
60246;BME280;46107;53.356;-1.524;2023-03-23T12:11:53;96627.36;;;9.98;66.70
60246;BME280;46107;53.356;-1.524;2023-03-23T12:14:31;96621.43;;;10.02;66.50
60246;BME280;46107;53.356;-1.524;2023-03-23T12:17:07;96614.81;;;10.23;65.84
60246;BME280;46107;53.356;-1.524;2023-03-23T12:19:45;96603.42;;;10.16;59.52
60246;BME280;46107;53.356;-1.524;2023-03-23T12:22:24;96600.85;;;9.75;62.31
60246;BME280;46107;53.356;-1.524;2023-03-23T12:25:02;96596.63;;;10.10;61.70
60246;BME280;46107;53.356;-1.524;2023-03-23T12:27:37;96592.78;;;10.10;61.96
60246;BME280;46107;53.356;-1.524;2023-03-23T12:30:22;96601.25;;;10.21;61.11
60246;BME280;46107;53.356;-1.524;2023-03-23T12:33:08;96603.50;;;11.22;60.21
60246;BME280;46107;53.356;-1.524;2023-03-23T12:35:47;96609.01;;;10.40;60.79
60246;BME280;46107;53.356;-1.524;2023-03-23T12:38:30;96593.99;;;9.90;61.96
60246;BME280;46107;53.356;-1.524;2023-03-23T12:41:10;96599.57;;;10.86;60.86
60246;BME280;46107;53.356;-1.524;2023-03-23T12:43:47;96615.79;;;11.27;58.73
60246;BME280;46107;53.356;-1.524;2023-03-23T12:46:58;96630.49;;;10.46;62.84
60246;BME280;46107;53.356;-1.524;2023-03-23T12:49:34;96631.09;;;9.96;55.38
60246;BME280;46107;53.356;-1.524;2023-03-23T12:52:10;96630.75;;;10.62;55.54
60246;BME280;46107;53.356;-1.524;2023-03-23T12:54:44;96614.84;;;9.30;59.96
60246;BME280;46107;53.356;-1.524;2023-03-23T12:57:16;96608.52;;;10.13;57.33
60246;BME280;46107;53.356;-1.524;2023-03-23T12:59:54;96598.52;;;10.44;59.44
60246;BME280;46107;53.356;-1.524;2023-03-23T13:02:27;96597.30;;;10.16;58.69
60246;BME280;46107;53.356;-1.524;2023-03-23T13:05:00;96590.08;;;11.33;57.23
60246;BME280;46107;53.356;-1.524;2023-03-23T13:07:34;96577.50;;;11.20;54.63
60246;BME280;46107;53.356;-1.524;2023-03-23T13:10:07;96576.87;;;12.02;54.50
60246;BME280;46107;53.356;-1.524;2023-03-23T13:12:41;96589.95;;;9.92;54.88
60246;BME280;46107;53.356;-1.524;2023-03-23T13:15:25;96583.11;;;10.90;55.68
60246;BME280;46107;53.356;-1.524;2023-03-23T13:17:58;96574.79;;;10.88;57.33